PRH weather

Phrae Airport
Phrae Province, Thailand

Public forecast

Using degrees Celsius for public forecast. Weather courtesy of forecast.io.

Current aviation weather report (METAR) for Phrae Airport

Retrieved 2019/10/15 00:00 UTC (13 minutes ago):

VTCP 150000Z VRB01KT 6000 FEW018 22/22 Q1015 NOSIG

Aviation forecast (TAF) for Phrae Airport

Retrieved 2019-10-15 00:00 UTC (13 minutes ago):

TAF VTCP 142300Z 1500/1524 02005KT 9999 SCT025